createdAt,value
2018-09-27T11:01:27.619Z,16.60
2018-09-27T11:04:09.302Z,16.80
2018-09-27T11:06:55.953Z,16.90
2018-09-27T11:09:38.383Z,16.90
2018-09-27T11:12:18.929Z,16.80
2018-09-27T11:18:08.785Z,17.00
2018-09-27T11:20:57.878Z,17.10
2018-09-27T11:23:39.570Z,17.20
2018-09-27T11:26:22.083Z,17.30
2018-09-27T11:29:08.169Z,17.40
2018-09-27T11:31:54.552Z,17.40
2018-09-27T11:34:34.852Z,17.50
2018-09-27T11:37:15.359Z,17.60
2018-09-27T11:39:59.893Z,17.70
2018-09-27T11:42:40.629Z,17.70
2018-09-27T11:45:20.857Z,17.80
2018-09-27T11:48:02.348Z,17.80
2018-09-27T11:53:45.419Z,18.00
2018-09-27T11:56:26.040Z,18.10
2018-09-27T11:59:07.817Z,18.20
2018-09-27T12:01:54.270Z,18.30
2018-09-27T12:04:40.648Z,18.30
2018-09-27T12:13:28.625Z,18.40
2018-09-27T13:31:42.417Z,19.80
2018-09-27T17:13:42.999Z,19.40
2018-09-27T17:16:30.408Z,19.30
2018-09-27T17:22:13.769Z,19.10
2018-09-27T17:24:58.341Z,19.00
2018-09-27T17:27:38.974Z,18.90
2018-09-27T17:30:23.202Z,18.80
2018-09-27T17:42:02.967Z,18.40
2018-09-27T17:44:31.393Z,18.30
2018-09-27T17:47:19.229Z,18.20
2018-09-27T17:52:50.442Z,18.10
2018-09-27T17:55:37.715Z,18.00
2018-09-27T17:58:17.805Z,17.90
2018-09-27T18:00:46.002Z,17.80
2018-09-27T18:03:26.190Z,17.70
2018-09-27T18:05:54.365Z,17.60
2018-09-27T18:08:37.218Z,17.50
2018-09-27T18:11:18.689Z,17.50
2018-09-27T18:14:05.935Z,17.40
2018-09-27T18:16:47.828Z,17.30
2018-09-27T18:19:30.628Z,17.20
2018-09-27T18:52:17.361Z,16.40
